createdAt,value
2022-12-07T00:00:00.475Z,1.10
2022-12-07T00:03:03.056Z,1.35
2022-12-07T00:06:07.832Z,0.98
2022-12-07T00:09:18.341Z,1.45
2022-12-07T00:12:20.891Z,1.10
2022-12-07T00:15:23.072Z,0.90
2022-12-07T00:18:25.800Z,0.80
2022-12-07T00:21:33.892Z,0.68
2022-12-07T00:24:36.307Z,0.90
2022-12-07T00:27:38.643Z,1.02
2022-12-07T00:30:41.239Z,0.82
2022-12-07T00:33:44.498Z,0.95
2022-12-07T00:36:47.931Z,0.70
2022-12-07T00:39:50.136Z,0.88
2022-12-07T00:42:53.064Z,1.08
2022-12-07T00:45:56.609Z,0.70
2022-12-07T00:48:59.315Z,0.90
2022-12-07T00:52:01.743Z,0.90
2022-12-07T00:55:04.861Z,0.73
2022-12-07T00:58:08.305Z,0.80
2022-12-07T01:01:12.266Z,0.60
2022-12-07T01:04:15.107Z,0.77
2022-12-07T01:07:17.601Z,1.00
2022-12-07T01:10:20.137Z,1.02
2022-12-07T01:13:22.529Z,1.00
2022-12-07T01:16:27.838Z,0.98
2022-12-07T01:19:30.559Z,0.70
2022-12-07T01:22:38.748Z,1.38
2022-12-07T01:25:41.239Z,0.93
2022-12-07T01:28:43.850Z,1.15
2022-12-07T01:31:50.710Z,0.88
2022-12-07T01:34:52.868Z,1.02
2022-12-07T01:37:55.237Z,0.70
2022-12-07T01:40:59.745Z,0.80
2022-12-07T01:44:25.740Z,1.02
2022-12-07T01:47:28.460Z,0.65
2022-12-07T01:50:33.161Z,0.65
2022-12-07T01:53:41.743Z,0.63
2022-12-07T01:56:51.826Z,0.85
2022-12-07T01:59:56.327Z,0.80
2022-12-07T02:03:06.919Z,0.85
2022-12-07T02:06:11.450Z,0.75
2022-12-07T02:09:14.434Z,0.73
2022-12-07T02:12:16.941Z,0.90
2022-12-07T02:15:22.990Z,0.85
2022-12-07T02:18:39.973Z,1.13
2022-12-07T02:21:53.252Z,0.60
2022-12-07T02:25:04.342Z,0.57
2022-12-07T02:28:44.130Z,0.77
2022-12-07T02:31:56.507Z,0.55
2022-12-07T02:35:08.147Z,0.88
2022-12-07T02:38:13.381Z,0.73
2022-12-07T02:41:36.881Z,0.60
2022-12-07T02:44:39.865Z,0.65
2022-12-07T02:47:44.537Z,0.52
2022-12-07T02:50:50.348Z,1.13
2022-12-07T02:53:52.745Z,0.45
2022-12-07T02:57:02.786Z,0.47
2022-12-07T03:00:12.217Z,0.80
2022-12-07T03:03:15.528Z,0.80
2022-12-07T03:06:23.738Z,0.73
2022-12-07T03:09:37.461Z,0.95
2022-12-07T03:13:07.429Z,1.25
2022-12-07T03:16:12.755Z,0.73
2022-12-07T03:19:18.959Z,1.10
2022-12-07T03:22:23.123Z,0.75
2022-12-07T03:28:35.957Z,0.75
2022-12-07T03:31:44.084Z,0.82
2022-12-07T03:34:56.746Z,1.05
2022-12-07T03:38:24.011Z,0.73
2022-12-07T03:41:30.191Z,0.60
2022-12-07T03:44:36.503Z,0.68
2022-12-07T03:47:50.463Z,0.75
2022-12-07T03:51:13.352Z,1.23
2022-12-07T03:54:34.783Z,0.95
2022-12-07T03:57:38.797Z,1.02
2022-12-07T04:00:42.844Z,0.98
2022-12-07T04:03:45.334Z,1.08
2022-12-07T04:06:47.374Z,0.93
2022-12-07T04:09:49.892Z,1.20
2022-12-07T04:12:52.231Z,0.82
2022-12-07T04:15:56.252Z,0.82
2022-12-07T04:18:58.799Z,1.10
2022-12-07T04:22:05.209Z,0.63
2022-12-07T04:25:07.776Z,0.70
2022-12-07T04:28:10.352Z,0.80
2022-12-07T04:31:13.304Z,0.88
2022-12-07T04:34:17.022Z,0.55
2022-12-07T04:37:19.273Z,0.70
2022-12-07T04:40:22.026Z,0.65
2022-12-07T04:43:24.451Z,0.60
2022-12-07T04:46:28.265Z,0.60
2022-12-07T04:49:30.439Z,0.60
2022-12-07T04:52:33.241Z,0.70
2022-12-07T04:55:35.387Z,1.52
2022-12-07T04:58:37.758Z,1.50
2022-12-07T05:01:40.749Z,1.35
2022-12-07T05:04:43.991Z,0.90
2022-12-07T05:07:46.146Z,1.30
2022-12-07T05:10:50.486Z,1.13
2022-12-07T05:13:52.582Z,0.70
2022-12-07T05:16:55.573Z,1.02
2022-12-07T05:19:57.732Z,1.08
2022-12-07T05:23:01.086Z,0.70
2022-12-07T05:26:03.229Z,0.98
2022-12-07T05:29:06.983Z,0.35
2022-12-07T05:32:09.407Z,0.63
2022-12-07T05:35:12.460Z,0.38
2022-12-07T05:38:14.797Z,0.50
2022-12-07T05:41:38.121Z,0.75
2022-12-07T05:44:42.655Z,0.35
2022-12-07T05:47:45.413Z,0.40
2022-12-07T05:50:52.516Z,0.32
2022-12-07T05:53:55.715Z,0.50
2022-12-07T05:56:59.189Z,0.80
2022-12-07T06:00:02.130Z,0.70
2022-12-07T06:03:14.828Z,0.45
2022-12-07T06:06:17.789Z,0.60
2022-12-07T06:09:22.134Z,0.65
2022-12-07T06:12:36.778Z,0.50
2022-12-07T06:15:39.293Z,0.47
2022-12-07T06:18:43.124Z,0.82
2022-12-07T06:21:45.372Z,0.98
2022-12-07T06:24:49.036Z,1.02
2022-12-07T06:27:51.148Z,0.80
2022-12-07T06:31:00.461Z,0.70
2022-12-07T06:34:05.220Z,0.50
2022-12-07T06:37:08.434Z,0.63
2022-12-07T06:40:11.482Z,0.30
2022-12-07T06:43:14.267Z,0.47
2022-12-07T06:46:19.643Z,0.50
2022-12-07T06:49:22.135Z,0.57
2022-12-07T06:52:25.253Z,0.52
2022-12-07T06:55:28.963Z,0.70
2022-12-07T06:58:31.819Z,0.40
2022-12-07T07:01:35.738Z,0.57
2022-12-07T07:04:37.954Z,0.57
2022-12-07T07:07:58.009Z,0.68
2022-12-07T07:11:01.194Z,0.40
2022-12-07T07:14:03.732Z,0.50
2022-12-07T07:17:06.147Z,0.73
2022-12-07T07:20:09.120Z,1.67
2022-12-07T07:23:12.045Z,0.90
2022-12-07T07:26:18.672Z,0.70
2022-12-07T07:29:23.979Z,0.55
2022-12-07T07:32:26.973Z,0.93
2022-12-07T07:35:30.754Z,1.05
2022-12-07T07:38:33.324Z,0.60
2022-12-07T07:41:35.937Z,0.47
2022-12-07T07:44:39.452Z,0.52
2022-12-07T07:47:42.199Z,0.30
2022-12-07T07:50:44.909Z,0.50
2022-12-07T07:53:49.317Z,0.52
2022-12-07T07:56:54.544Z,0.30
2022-12-07T07:59:56.741Z,0.60
2022-12-07T08:03:00.302Z,1.15
2022-12-07T08:06:06.114Z,0.60
2022-12-07T08:09:09.716Z,0.60
2022-12-07T08:12:11.979Z,0.50
2022-12-07T08:15:14.604Z,0.38
2022-12-07T08:18:17.239Z,0.60
2022-12-07T08:21:20.373Z,0.45
2022-12-07T08:24:24.611Z,0.60
2022-12-07T08:27:28.253Z,0.60
2022-12-07T08:30:31.185Z,0.75
2022-12-07T08:33:34.628Z,0.50
2022-12-07T08:36:38.351Z,0.70
2022-12-07T08:39:41.899Z,0.57
2022-12-07T08:42:45.747Z,0.63
2022-12-07T08:46:13.154Z,1.20
2022-12-07T08:49:45.467Z,0.80
2022-12-07T08:52:53.499Z,1.10
2022-12-07T08:55:57.892Z,0.80
2022-12-07T08:59:00.959Z,1.02
2022-12-07T09:02:03.201Z,0.73
2022-12-07T09:05:10.556Z,1.15
2022-12-07T09:08:17.229Z,0.90
2022-12-07T09:14:30.946Z,0.80
2022-12-07T09:17:34.980Z,0.45
2022-12-07T09:20:37.069Z,0.60
2022-12-07T09:23:43.803Z,0.45
2022-12-07T09:26:46.504Z,0.60
2022-12-07T09:29:50.779Z,0.80
2022-12-07T09:32:57.836Z,0.80
2022-12-07T09:36:00.347Z,0.60
2022-12-07T09:39:02.715Z,0.60
2022-12-07T09:42:06.712Z,1.13
2022-12-07T09:45:14.932Z,0.77
2022-12-07T09:48:40.463Z,0.98
2022-12-07T09:51:42.631Z,0.77
2022-12-07T09:54:50.065Z,0.85
2022-12-07T09:57:53.536Z,0.45
2022-12-07T10:01:08.462Z,0.65
2022-12-07T10:04:23.608Z,0.57
2022-12-07T10:07:26.302Z,0.60
2022-12-07T10:10:38.061Z,0.80
2022-12-07T10:13:49.090Z,1.08
2022-12-07T10:16:51.596Z,0.73
2022-12-07T10:20:20.618Z,0.43
2022-12-07T10:23:22.837Z,0.73
2022-12-07T10:26:34.460Z,0.50
2022-12-07T10:29:40.785Z,0.50
2022-12-07T10:32:45.165Z,0.70
2022-12-07T10:35:47.992Z,0.50
2022-12-07T10:38:55.325Z,0.45
2022-12-07T10:42:02.210Z,0.88
2022-12-07T10:45:19.361Z,0.50
2022-12-07T10:48:41.837Z,0.50
2022-12-07T10:51:55.916Z,0.55
2022-12-07T10:55:20.994Z,1.00
2022-12-07T10:58:32.758Z,0.65
2022-12-07T11:01:43.790Z,0.70
2022-12-07T11:04:55.725Z,0.90
2022-12-07T11:08:14.245Z,0.70
2022-12-07T11:11:39.965Z,0.82
2022-12-07T11:14:48.695Z,0.47
2022-12-07T11:18:00.457Z,0.50
2022-12-07T11:21:31.320Z,0.60
2022-12-07T11:24:44.351Z,0.70
2022-12-07T11:28:03.497Z,1.38
2022-12-07T11:31:33.217Z,1.13
2022-12-07T11:34:46.985Z,1.55
2022-12-07T11:37:52.431Z,1.25
2022-12-07T11:41:14.455Z,1.70
2022-12-07T11:44:40.448Z,0.90
2022-12-07T11:47:53.166Z,1.67
2022-12-07T11:51:00.458Z,0.57
2022-12-07T11:54:22.877Z,0.65
2022-12-07T11:57:34.720Z,1.23
2022-12-07T12:00:38.023Z,0.80
2022-12-07T12:03:52.807Z,0.77
2022-12-07T12:06:56.398Z,1.10
2022-12-07T12:10:04.378Z,0.90
2022-12-07T12:16:59.793Z,1.40
2022-12-07T12:20:05.498Z,1.00
2022-12-07T12:23:40.507Z,0.70
2022-12-07T12:26:57.471Z,0.55
2022-12-07T12:30:04.274Z,0.80
2022-12-07T12:33:33.025Z,0.80
2022-12-07T12:36:41.782Z,0.70
2022-12-07T12:40:16.437Z,0.93
2022-12-07T12:43:53.837Z,0.57
2022-12-07T12:47:03.311Z,0.88
2022-12-07T12:50:14.677Z,1.00
2022-12-07T12:53:26.172Z,0.60
2022-12-07T12:56:41.836Z,0.52
2022-12-07T12:59:57.495Z,0.55
2022-12-07T13:03:29.689Z,0.65
2022-12-07T13:06:36.650Z,0.40
2022-12-07T13:09:45.090Z,0.60
2022-12-07T13:13:03.759Z,0.60
2022-12-07T13:16:09.435Z,0.85
2022-12-07T13:19:50.340Z,0.57
2022-12-07T13:22:55.339Z,0.70
2022-12-07T13:26:18.312Z,0.50
2022-12-07T13:29:22.792Z,0.95
2022-12-07T13:32:27.946Z,0.83
2022-12-07T13:35:37.209Z,0.60
2022-12-07T13:38:40.532Z,0.68
2022-12-07T13:41:44.603Z,0.40
2022-12-07T13:44:46.759Z,0.40
2022-12-07T13:47:55.254Z,0.60
2022-12-07T13:50:59.959Z,1.05
2022-12-07T13:54:12.038Z,1.17
2022-12-07T13:57:15.618Z,1.35
2022-12-07T14:00:21.517Z,0.70
2022-12-07T14:03:33.835Z,0.50
2022-12-07T14:06:36.603Z,0.60
2022-12-07T14:09:39.068Z,0.70
2022-12-07T14:12:44.131Z,0.90
2022-12-07T14:15:51.846Z,1.75
2022-12-07T14:18:55.967Z,0.70
2022-12-07T14:22:09.906Z,0.97
2022-12-07T14:25:15.569Z,1.05
2022-12-07T14:28:29.424Z,0.50
2022-12-07T14:31:33.844Z,0.43
2022-12-07T14:34:36.907Z,0.63
2022-12-07T14:37:42.505Z,0.57
2022-12-07T14:40:45.472Z,0.60
2022-12-07T14:44:21.341Z,0.50
2022-12-07T14:54:19.160Z,1.67
2022-12-07T14:57:21.836Z,1.15
2022-12-07T15:00:26.753Z,1.00
2022-12-07T15:03:29.475Z,1.02
2022-12-07T15:06:31.942Z,0.60
2022-12-07T15:09:35.431Z,0.60
2022-12-07T15:12:37.411Z,0.70
2022-12-07T15:15:40.625Z,0.80
2022-12-07T15:18:53.129Z,1.15
2022-12-07T15:22:07.599Z,0.77
2022-12-07T15:25:14.026Z,1.00
2022-12-07T15:28:17.409Z,0.90
2022-12-07T15:31:53.386Z,0.90
2022-12-07T15:34:42.470Z,1.20
2022-12-07T15:37:45.205Z,0.77
2022-12-07T15:40:48.730Z,0.50
2022-12-07T15:44:10.150Z,0.50
2022-12-07T15:47:13.002Z,0.70
2022-12-07T15:50:17.310Z,0.60
2022-12-07T15:53:21.428Z,0.60
2022-12-07T15:56:23.884Z,0.70
2022-12-07T15:59:31.847Z,0.50
2022-12-07T16:02:39.655Z,0.47
2022-12-07T16:05:42.917Z,0.60
2022-12-07T16:08:47.582Z,0.50
2022-12-07T16:11:52.373Z,0.50
2022-12-07T16:14:54.642Z,0.40
2022-12-07T16:17:57.721Z,0.73
2022-12-07T16:21:00.145Z,1.20
2022-12-07T16:24:03.489Z,1.35
2022-12-07T16:27:05.702Z,1.45
2022-12-07T16:30:08.915Z,1.17
2022-12-07T16:33:12.550Z,1.35
2022-12-07T16:36:34.030Z,1.48
2022-12-07T16:39:40.502Z,0.88
2022-12-07T16:42:44.491Z,0.70
2022-12-07T16:45:48.238Z,1.63
2022-12-07T16:48:51.419Z,1.48
2022-12-07T16:52:18.143Z,1.02
2022-12-07T16:55:17.374Z,1.08
2022-12-07T16:58:20.269Z,0.55
2022-12-07T17:01:24.672Z,0.85
2022-12-07T17:04:26.945Z,0.60
2022-12-07T17:07:29.886Z,0.60
2022-12-07T17:10:35.329Z,1.00
2022-12-07T17:13:57.069Z,0.98
2022-12-07T17:17:02.140Z,1.05
2022-12-07T17:20:05.537Z,0.88
2022-12-07T17:23:08.047Z,0.60
2022-12-07T17:26:22.740Z,0.65
2022-12-07T17:29:24.955Z,0.85
2022-12-07T17:32:28.181Z,0.65
2022-12-07T17:35:31.015Z,0.50
2022-12-07T17:38:35.007Z,0.75
2022-12-07T17:41:57.535Z,0.65
2022-12-07T17:45:00.541Z,1.25
2022-12-07T17:48:04.260Z,1.17
2022-12-07T17:51:25.373Z,1.20
2022-12-07T17:54:27.692Z,1.00
2022-12-07T17:57:30.211Z,0.98
2022-12-07T18:00:38.506Z,0.80
2022-12-07T18:03:41.868Z,0.80
2022-12-07T18:06:50.451Z,0.90
2022-12-07T18:09:54.884Z,0.93
2022-12-07T18:13:16.944Z,1.00
2022-12-07T18:16:24.152Z,0.82
2022-12-07T18:19:27.097Z,1.02
2022-12-07T18:22:29.779Z,0.88
2022-12-07T18:25:32.391Z,0.98
2022-12-07T18:28:35.189Z,1.13
2022-12-07T18:31:38.151Z,0.90
2022-12-07T18:34:41.981Z,0.82
2022-12-07T18:37:44.603Z,0.93
2022-12-07T18:40:47.726Z,0.90
2022-12-07T18:43:55.877Z,0.60
2022-12-07T18:46:58.827Z,1.00
2022-12-07T18:50:00.939Z,0.90
2022-12-07T18:56:24.176Z,1.10
2022-12-07T18:59:45.447Z,1.55
2022-12-07T19:02:47.821Z,0.77
2022-12-07T19:05:50.380Z,1.10
2022-12-07T19:08:55.473Z,0.73
2022-12-07T19:12:03.392Z,1.00
2022-12-07T19:15:07.017Z,1.40
2022-12-07T19:18:09.442Z,1.35
2022-12-07T19:21:11.875Z,1.35
2022-12-07T19:24:19.804Z,0.98
2022-12-07T19:27:27.468Z,1.00
2022-12-07T19:30:30.634Z,1.85
2022-12-07T19:33:33.153Z,1.83
2022-12-07T19:36:36.309Z,1.67
2022-12-07T19:39:39.931Z,1.60
2022-12-07T19:42:43.334Z,1.63
2022-12-07T19:45:45.803Z,1.58
2022-12-07T19:48:49.229Z,2.30
2022-12-07T19:51:54.436Z,1.83
2022-12-07T19:54:57.664Z,1.83
2022-12-07T19:58:00.348Z,1.42
2022-12-07T20:01:05.012Z,1.67
2022-12-07T20:04:10.303Z,1.60
2022-12-07T20:07:16.093Z,1.52
2022-12-07T20:10:24.458Z,1.52
2022-12-07T20:13:29.005Z,1.25
2022-12-07T20:16:31.552Z,1.23
2022-12-07T20:19:38.084Z,1.55
2022-12-07T20:22:40.753Z,1.67
2022-12-07T20:25:43.735Z,1.50
2022-12-07T20:28:47.644Z,1.40
2022-12-07T20:31:52.032Z,1.10
2022-12-07T20:34:55.394Z,1.30
2022-12-07T20:37:57.998Z,1.10
2022-12-07T20:41:03.239Z,1.40
2022-12-07T20:44:06.210Z,1.65
2022-12-07T20:47:08.379Z,1.10
2022-12-07T20:50:11.413Z,1.88
2022-12-07T20:53:14.078Z,1.70
2022-12-07T20:56:21.563Z,1.30
2022-12-07T20:59:24.126Z,1.08
2022-12-07T21:02:28.034Z,1.08
2022-12-07T21:05:30.983Z,1.10
2022-12-07T21:08:34.806Z,1.20
2022-12-07T21:11:38.354Z,1.13
2022-12-07T21:14:41.904Z,1.27
2022-12-07T21:17:44.020Z,1.10
2022-12-07T21:20:46.494Z,1.15
2022-12-07T21:23:54.421Z,1.10
2022-12-07T21:26:59.567Z,0.98
2022-12-07T21:30:01.663Z,1.00
2022-12-07T21:33:04.397Z,1.15
2022-12-07T21:36:07.805Z,1.33
2022-12-07T21:39:11.155Z,1.00
2022-12-07T21:42:14.023Z,1.00
2022-12-07T21:45:16.868Z,0.82
2022-12-07T21:48:21.129Z,0.70
2022-12-07T21:51:25.957Z,0.98
2022-12-07T21:57:33.021Z,1.20
2022-12-07T22:00:35.471Z,0.73
2022-12-07T22:03:38.341Z,1.05
2022-12-07T22:06:41.853Z,1.08
2022-12-07T22:09:44.644Z,0.93
2022-12-07T22:12:46.782Z,1.08
2022-12-07T22:15:49.732Z,1.00
2022-12-07T22:18:52.515Z,1.20
2022-12-07T22:21:55.361Z,1.15
2022-12-07T22:24:58.301Z,1.00
2022-12-07T22:28:01.216Z,0.98
2022-12-07T22:31:08.738Z,4.60
2022-12-07T22:34:18.246Z,4.20
2022-12-07T22:37:20.267Z,3.67
2022-12-07T22:40:22.988Z,3.00
2022-12-07T22:43:25.583Z,2.03
2022-12-07T22:46:28.952Z,2.72
2022-12-07T22:49:32.544Z,2.38
2022-12-07T22:52:35.547Z,1.52
2022-12-07T22:55:41.251Z,1.77
2022-12-07T22:58:44.063Z,1.40
2022-12-07T23:01:46.317Z,1.50
2022-12-07T23:04:55.934Z,1.55
2022-12-07T23:07:58.190Z,1.30
2022-12-07T23:11:00.853Z,1.42
2022-12-07T23:14:04.141Z,1.30
2022-12-07T23:17:07.543Z,1.37
2022-12-07T23:20:09.954Z,1.45
2022-12-07T23:23:12.849Z,1.02
2022-12-07T23:26:15.501Z,0.70
2022-12-07T23:29:20.544Z,1.20
2022-12-07T23:32:22.439Z,0.95
2022-12-07T23:35:24.898Z,1.20
2022-12-07T23:38:27.017Z,1.20
2022-12-07T23:41:31.494Z,1.10
2022-12-07T23:44:33.509Z,1.15
2022-12-07T23:47:35.945Z,0.90
2022-12-07T23:50:38.278Z,1.20
2022-12-07T23:53:43.280Z,0.95
2022-12-07T23:56:45.266Z,0.98
2022-12-07T23:59:47.598Z,1.38
